Social login voor leden:

1. METAR EBOS

METAR EBOS 201750Z 30014KT 9999 FEW012 SCT040 07/04 Q1012 TEMPO 28023G35KT 4000 SHRA SCT006 BKN012

2. TAF EBOS

TAF EBOS 201750Z 30014KT 9999 FEW012 SCT040 07/04 Q1012 TEMPO 28023G35KT 4000 SHRA SCT006 BKN012

3. NOTAMS EBOS

Klik hier voor een overzicht van de notams.

Deze pagina promoten

Noordzee Vliegclub - Nieuwpoortsesteenweg 947 8400 Oostende - Tel 059 30 04 79 - info@nzvc.be - 

 - Copyright 2017